sensor_id;sensor_type;location;lat;lon;timestamp;P1;durP1;ratioP1;P2;durP2;ratioP2
2618;SDS011;1319;52.346;13.096;2022-09-09T00:06:55;15.80;;;9.50;;
2618;SDS011;1319;52.346;13.096;2022-09-09T00:09:25;13.97;;;9.40;;
2618;SDS011;1319;52.346;13.096;2022-09-09T00:11:52;23.33;;;9.43;;
2618;SDS011;1319;52.346;13.096;2022-09-09T00:16:56;10.17;;;7.20;;
2618;SDS011;1319;52.346;13.096;2022-09-09T00:19:30;6.97;;;4.33;;
2618;SDS011;1319;52.346;13.096;2022-09-09T00:22:17;19.53;;;4.53;;
2618;SDS011;1319;52.346;13.096;2022-09-09T00:24:51;19.67;;;4.43;;
2618;SDS011;1319;52.346;13.096;2022-09-09T00:30:22;13.20;;;4.57;;
2618;SDS011;1319;52.346;13.096;2022-09-09T00:32:49;11.87;;;6.70;;
2618;SDS011;1319;52.346;13.096;2022-09-09T00:35:22;15.17;;;6.87;;
2618;SDS011;1319;52.346;13.096;2022-09-09T00:37:50;16.10;;;7.20;;
2618;SDS011;1319;52.346;13.096;2022-09-09T00:42:48;11.47;;;5.30;;
2618;SDS011;1319;52.346;13.096;2022-09-09T00:45:27;40.47;;;5.73;;
2618;SDS011;1319;52.346;13.096;2022-09-09T00:47:55;37.77;;;6.07;;
2618;SDS011;1319;52.346;13.096;2022-09-09T00:50:26;14.83;;;4.33;;
2618;SDS011;1319;52.346;13.096;2022-09-09T00:58:00;11.27;;;5.53;;
2618;SDS011;1319;52.346;13.096;2022-09-09T01:05:38;20.23;;;6.47;;
2618;SDS011;1319;52.346;13.096;2022-09-09T01:08:09;19.17;;;6.20;;
2618;SDS011;1319;52.346;13.096;2022-09-09T01:10:43;9.93;;;6.03;;
2618;SDS011;1319;52.346;13.096;2022-09-09T01:13:22;12.60;;;7.30;;
2618;SDS011;1319;52.346;13.096;2022-09-09T01:15:48;12.13;;;6.40;;
2618;SDS011;1319;52.346;13.096;2022-09-09T01:18:15;10.40;;;6.97;;
2618;SDS011;1319;52.346;13.096;2022-09-09T01:20:48;10.63;;;6.63;;
2618;SDS011;1319;52.346;13.096;2022-09-09T01:23:36;14.03;;;6.90;;
2618;SDS011;1319;52.346;13.096;2022-09-09T01:28:31;14.03;;;5.97;;
2618;SDS011;1319;52.346;13.096;2022-09-09T01:30:57;6.13;;;5.13;;
2618;SDS011;1319;52.346;13.096;2022-09-09T01:33:23;14.87;;;5.97;;
2618;SDS011;1319;52.346;13.096;2022-09-09T01:38:19;22.00;;;5.63;;
2618;SDS011;1319;52.346;13.096;2022-09-09T01:40:45;46.63;;;6.87;;
2618;SDS011;1319;52.346;13.096;2022-09-09T01:43:11;41.73;;;6.93;;
2618;SDS011;1319;52.346;13.096;2022-09-09T01:45:36;10.43;;;6.50;;
2618;SDS011;1319;52.346;13.096;2022-09-09T01:48:02;6.67;;;5.47;;
2618;SDS011;1319;52.346;13.096;2022-09-09T01:50:27;8.50;;;6.50;;
2618;SDS011;1319;52.346;13.096;2022-09-09T01:52:55;7.17;;;5.90;;
2618;SDS011;1319;52.346;13.096;2022-09-09T01:55:32;7.93;;;5.77;;
2618;SDS011;1319;52.346;13.096;2022-09-09T02:00:23;10.30;;;5.67;;
2618;SDS011;1319;52.346;13.096;2022-09-09T02:08:05;11.70;;;5.97;;
2618;SDS011;1319;52.346;13.096;2022-09-09T02:13:07;13.83;;;8.10;;
2618;SDS011;1319;52.346;13.096;2022-09-09T02:18:13;14.43;;;7.87;;
2618;SDS011;1319;52.346;13.096;2022-09-09T02:20:41;12.00;;;7.80;;
2618;SDS011;1319;52.346;13.096;2022-09-09T02:23:07;15.63;;;8.03;;
2618;SDS011;1319;52.346;13.096;2022-09-09T02:25:33;12.97;;;8.20;;
2618;SDS011;1319;52.346;13.096;2022-09-09T02:28:00;17.00;;;8.77;;
2618;SDS011;1319;52.346;13.096;2022-09-09T02:30:27;18.30;;;8.70;;
2618;SDS011;1319;52.346;13.096;2022-09-09T02:32:54;20.03;;;8.90;;
2618;SDS011;1319;52.346;13.096;2022-09-09T02:35:22;12.53;;;8.07;;
2618;SDS011;1319;52.346;13.096;2022-09-09T02:37:49;15.87;;;8.10;;
2618;SDS011;1319;52.346;13.096;2022-09-09T02:40:16;16.30;;;8.30;;
2618;SDS011;1319;52.346;13.096;2022-09-09T02:42:42;19.17;;;8.87;;
2618;SDS011;1319;52.346;13.096;2022-09-09T02:45:08;22.77;;;9.30;;
2618;SDS011;1319;52.346;13.096;2022-09-09T02:47:35;16.00;;;8.70;;
2618;SDS011;1319;52.346;13.096;2022-09-09T02:50:13;14.73;;;8.53;;
2618;SDS011;1319;52.346;13.096;2022-09-09T02:52:42;25.10;;;9.00;;
2618;SDS011;1319;52.346;13.096;2022-09-09T02:55:16;15.50;;;8.00;;
2618;SDS011;1319;52.346;13.096;2022-09-09T02:57:43;15.77;;;7.90;;
2618;SDS011;1319;52.346;13.096;2022-09-09T03:00:12;14.83;;;7.63;;
2618;SDS011;1319;52.346;13.096;2022-09-09T03:02:38;12.87;;;7.30;;
2618;SDS011;1319;52.346;13.096;2022-09-09T03:05:03;12.03;;;7.93;;
2618;SDS011;1319;52.346;13.096;2022-09-09T03:07:30;13.47;;;7.80;;
2618;SDS011;1319;52.346;13.096;2022-09-09T03:09:55;16.33;;;8.07;;
2618;SDS011;1319;52.346;13.096;2022-09-09T03:12:20;11.17;;;7.40;;
2618;SDS011;1319;52.346;13.096;2022-09-09T03:14:46;15.13;;;7.77;;
2618;SDS011;1319;52.346;13.096;2022-09-09T03:17:11;13.83;;;7.57;;
2618;SDS011;1319;52.346;13.096;2022-09-09T03:19:37;12.23;;;6.70;;
2618;SDS011;1319;52.346;13.096;2022-09-09T03:22:02;9.00;;;6.43;;
2618;SDS011;1319;52.346;13.096;2022-09-09T03:24:29;16.63;;;7.70;;
2618;SDS011;1319;52.346;13.096;2022-09-09T03:26:54;13.13;;;7.50;;
2618;SDS011;1319;52.346;13.096;2022-09-09T03:29:20;13.70;;;7.53;;
2618;SDS011;1319;52.346;13.096;2022-09-09T03:31:46;13.93;;;8.00;;
2618;SDS011;1319;52.346;13.096;2022-09-09T03:34:11;17.10;;;8.07;;
2618;SDS011;1319;52.346;13.096;2022-09-09T03:36:38;15.37;;;8.73;;
2618;SDS011;1319;52.346;13.096;2022-09-09T03:39:03;18.13;;;8.90;;
2618;SDS011;1319;52.346;13.096;2022-09-09T03:41:29;13.73;;;7.80;;
2618;SDS011;1319;52.346;13.096;2022-09-09T03:43:55;18.03;;;8.27;;
2618;SDS011;1319;52.346;13.096;2022-09-09T03:46:21;13.60;;;6.77;;
2618;SDS011;1319;52.346;13.096;2022-09-09T03:48:46;13.63;;;6.33;;
2618;SDS011;1319;52.346;13.096;2022-09-09T03:51:12;9.80;;;6.13;;
2618;SDS011;1319;52.346;13.096;2022-09-09T03:53:37;11.03;;;6.80;;
2618;SDS011;1319;52.346;13.096;2022-09-09T03:56:03;12.90;;;6.77;;
2618;SDS011;1319;52.346;13.096;2022-09-09T03:58:29;12.50;;;6.17;;
2618;SDS011;1319;52.346;13.096;2022-09-09T04:00:55;13.30;;;6.90;;
2618;SDS011;1319;52.346;13.096;2022-09-09T04:03:20;9.60;;;6.57;;
2618;SDS011;1319;52.346;13.096;2022-09-09T04:05:48;11.13;;;7.00;;
2618;SDS011;1319;52.346;13.096;2022-09-09T04:08:13;17.00;;;7.57;;
2618;SDS011;1319;52.346;13.096;2022-09-09T04:10:39;15.23;;;8.00;;
2618;SDS011;1319;52.346;13.096;2022-09-09T04:13:04;15.30;;;8.33;;
2618;SDS011;1319;52.346;13.096;2022-09-09T04:15:30;15.87;;;7.90;;
2618;SDS011;1319;52.346;13.096;2022-09-09T04:17:55;19.93;;;8.37;;
2618;SDS011;1319;52.346;13.096;2022-09-09T04:20:20;18.20;;;7.93;;
2618;SDS011;1319;52.346;13.096;2022-09-09T04:22:47;13.87;;;7.73;;
2618;SDS011;1319;52.346;13.096;2022-09-09T04:25:12;13.37;;;8.17;;
2618;SDS011;1319;52.346;13.096;2022-09-09T04:27:37;15.80;;;7.70;;
2618;SDS011;1319;52.346;13.096;2022-09-09T04:30:02;13.63;;;7.53;;
2618;SDS011;1319;52.346;13.096;2022-09-09T04:32:28;17.30;;;7.60;;
2618;SDS011;1319;52.346;13.096;2022-09-09T04:34:53;11.03;;;7.43;;
2618;SDS011;1319;52.346;13.096;2022-09-09T04:37:18;10.57;;;6.20;;
2618;SDS011;1319;52.346;13.096;2022-09-09T04:39:43;10.97;;;6.17;;
2618;SDS011;1319;52.346;13.096;2022-09-09T04:42:08;9.20;;;5.83;;
2618;SDS011;1319;52.346;13.096;2022-09-09T04:44:34;9.63;;;5.40;;
2618;SDS011;1319;52.346;13.096;2022-09-09T04:46:59;6.80;;;4.63;;
2618;SDS011;1319;52.346;13.096;2022-09-09T04:49:24;6.80;;;5.10;;
2618;SDS011;1319;52.346;13.096;2022-09-09T04:51:50;7.00;;;5.03;;
2618;SDS011;1319;52.346;13.096;2022-09-09T04:54:16;7.10;;;4.37;;
2618;SDS011;1319;52.346;13.096;2022-09-09T04:56:41;12.07;;;4.97;;
2618;SDS011;1319;52.346;13.096;2022-09-09T04:59:08;6.77;;;4.90;;
2618;SDS011;1319;52.346;13.096;2022-09-09T05:01:34;6.47;;;5.10;;
2618;SDS011;1319;52.346;13.096;2022-09-09T05:04:00;5.27;;;4.67;;
2618;SDS011;1319;52.346;13.096;2022-09-09T05:06:26;8.43;;;5.20;;
2618;SDS011;1319;52.346;13.096;2022-09-09T05:08:51;9.10;;;5.10;;
2618;SDS011;1319;52.346;13.096;2022-09-09T05:13:44;6.27;;;5.40;;
2618;SDS011;1319;52.346;13.096;2022-09-09T05:16:09;6.07;;;5.00;;
2618;SDS011;1319;52.346;13.096;2022-09-09T05:18:36;11.23;;;5.83;;
2618;SDS011;1319;52.346;13.096;2022-09-09T05:21:01;7.67;;;5.30;;
2618;SDS011;1319;52.346;13.096;2022-09-09T05:23:27;10.00;;;6.20;;
2618;SDS011;1319;52.346;13.096;2022-09-09T05:25:56;11.13;;;6.03;;
2618;SDS011;1319;52.346;13.096;2022-09-09T05:28:21;16.90;;;7.47;;
2618;SDS011;1319;52.346;13.096;2022-09-09T05:30:54;12.10;;;7.43;;
2618;SDS011;1319;52.346;13.096;2022-09-09T05:33:19;10.93;;;6.33;;
2618;SDS011;1319;52.346;13.096;2022-09-09T05:35:46;9.23;;;6.37;;
2618;SDS011;1319;52.346;13.096;2022-09-09T05:38:11;8.57;;;5.93;;
2618;SDS011;1319;52.346;13.096;2022-09-09T05:40:36;8.20;;;5.80;;
2618;SDS011;1319;52.346;13.096;2022-09-09T05:43:01;9.97;;;6.10;;
2618;SDS011;1319;52.346;13.096;2022-09-09T05:45:26;9.27;;;6.07;;
2618;SDS011;1319;52.346;13.096;2022-09-09T05:47:52;10.73;;;6.00;;
2618;SDS011;1319;52.346;13.096;2022-09-09T05:50:20;10.63;;;6.60;;
2618;SDS011;1319;52.346;13.096;2022-09-09T05:52:45;9.50;;;7.03;;
2618;SDS011;1319;52.346;13.096;2022-09-09T05:55:10;15.83;;;9.43;;
2618;SDS011;1319;52.346;13.096;2022-09-09T05:57:35;13.37;;;8.50;;
2618;SDS011;1319;52.346;13.096;2022-09-09T06:00:01;16.03;;;9.10;;
2618;SDS011;1319;52.346;13.096;2022-09-09T06:02:26;16.57;;;10.37;;
2618;SDS011;1319;52.346;13.096;2022-09-09T06:04:51;19.37;;;10.40;;
2618;SDS011;1319;52.346;13.096;2022-09-09T06:07:17;18.90;;;10.37;;
2618;SDS011;1319;52.346;13.096;2022-09-09T06:09:42;20.10;;;10.70;;
2618;SDS011;1319;52.346;13.096;2022-09-09T06:12:07;25.27;;;11.30;;
2618;SDS011;1319;52.346;13.096;2022-09-09T06:14:32;18.80;;;10.30;;
2618;SDS011;1319;52.346;13.096;2022-09-09T06:16:58;19.30;;;9.50;;
2618;SDS011;1319;52.346;13.096;2022-09-09T06:19:23;17.87;;;9.73;;
2618;SDS011;1319;52.346;13.096;2022-09-09T06:21:51;16.37;;;9.17;;
2618;SDS011;1319;52.346;13.096;2022-09-09T06:24:16;18.23;;;9.53;;
2618;SDS011;1319;52.346;13.096;2022-09-09T06:26:44;11.77;;;8.40;;
2618;SDS011;1319;52.346;13.096;2022-09-09T06:29:10;19.63;;;8.50;;
2618;SDS011;1319;52.346;13.096;2022-09-09T06:31:36;13.60;;;8.30;;
2618;SDS011;1319;52.346;13.096;2022-09-09T06:34:02;15.00;;;8.40;;
2618;SDS011;1319;52.346;13.096;2022-09-09T06:36:29;16.97;;;8.23;;
2618;SDS011;1319;52.346;13.096;2022-09-09T06:38:56;9.70;;;7.67;;
2618;SDS011;1319;52.346;13.096;2022-09-09T06:41:23;16.00;;;7.50;;
2618;SDS011;1319;52.346;13.096;2022-09-09T06:43:48;11.80;;;6.10;;
2618;SDS011;1319;52.346;13.096;2022-09-09T06:46:18;6.73;;;6.00;;
2618;SDS011;1319;52.346;13.096;2022-09-09T06:48:43;8.60;;;6.23;;
2618;SDS011;1319;52.346;13.096;2022-09-09T06:51:15;10.37;;;5.90;;
2618;SDS011;1319;52.346;13.096;2022-09-09T06:53:41;11.83;;;5.20;;
2618;SDS011;1319;52.346;13.096;2022-09-09T06:58:41;8.30;;;4.80;;
2618;SDS011;1319;52.346;13.096;2022-09-09T07:01:09;6.03;;;4.23;;
2618;SDS011;1319;52.346;13.096;2022-09-09T07:03:34;8.40;;;4.07;;
2618;SDS011;1319;52.346;13.096;2022-09-09T07:06:00;8.23;;;3.87;;
2618;SDS011;1319;52.346;13.096;2022-09-09T07:08:26;5.37;;;3.90;;
2618;SDS011;1319;52.346;13.096;2022-09-09T07:10:51;3.43;;;3.13;;
2618;SDS011;1319;52.346;13.096;2022-09-09T07:13:19;12.60;;;3.97;;
2618;SDS011;1319;52.346;13.096;2022-09-09T07:15:46;5.30;;;2.97;;
2618;SDS011;1319;52.346;13.096;2022-09-09T07:18:11;2.90;;;2.67;;
2618;SDS011;1319;52.346;13.096;2022-09-09T07:20:36;5.57;;;2.37;;
2618;SDS011;1319;52.346;13.096;2022-09-09T07:23:01;7.87;;;2.60;;
2618;SDS011;1319;52.346;13.096;2022-09-09T07:25:27;2.80;;;2.60;;
2618;SDS011;1319;52.346;13.096;2022-09-09T07:27:53;4.20;;;2.77;;
2618;SDS011;1319;52.346;13.096;2022-09-09T07:30:19;3.20;;;2.40;;
2618;SDS011;1319;52.346;13.096;2022-09-09T07:32:44;4.60;;;2.97;;
2618;SDS011;1319;52.346;13.096;2022-09-09T07:35:10;4.33;;;2.70;;
2618;SDS011;1319;52.346;13.096;2022-09-09T07:37:36;7.70;;;3.10;;
2618;SDS011;1319;52.346;13.096;2022-09-09T07:40:01;5.53;;;2.63;;
2618;SDS011;1319;52.346;13.096;2022-09-09T07:42:28;5.67;;;2.50;;
2618;SDS011;1319;52.346;13.096;2022-09-09T07:44:53;4.17;;;2.67;;
2618;SDS011;1319;52.346;13.096;2022-09-09T07:47:19;5.80;;;2.40;;
2618;SDS011;1319;52.346;13.096;2022-09-09T07:49:45;5.13;;;2.40;;
2618;SDS011;1319;52.346;13.096;2022-09-09T07:52:11;3.93;;;2.30;;
2618;SDS011;1319;52.346;13.096;2022-09-09T07:54:36;3.57;;;2.40;;
2618;SDS011;1319;52.346;13.096;2022-09-09T07:57:02;3.57;;;2.20;;
2618;SDS011;1319;52.346;13.096;2022-09-09T07:59:29;4.20;;;2.33;;
2618;SDS011;1319;52.346;13.096;2022-09-09T08:01:55;3.10;;;2.10;;
2618;SDS011;1319;52.346;13.096;2022-09-09T08:04:20;7.47;;;2.43;;
2618;SDS011;1319;52.346;13.096;2022-09-09T08:06:48;3.17;;;2.20;;
2618;SDS011;1319;52.346;13.096;2022-09-09T08:09:13;3.83;;;2.17;;
2618;SDS011;1319;52.346;13.096;2022-09-09T08:11:39;3.13;;;1.90;;
2618;SDS011;1319;52.346;13.096;2022-09-09T08:14:05;3.70;;;1.97;;
2618;SDS011;1319;52.346;13.096;2022-09-09T08:16:33;7.50;;;2.00;;
2618;SDS011;1319;52.346;13.096;2022-09-09T08:18:58;3.70;;;2.00;;
2618;SDS011;1319;52.346;13.096;2022-09-09T08:21:25;4.50;;;1.87;;
2618;SDS011;1319;52.346;13.096;2022-09-09T08:23:53;2.13;;;1.80;;
2618;SDS011;1319;52.346;13.096;2022-09-09T08:26:20;6.47;;;2.17;;
2618;SDS011;1319;52.346;13.096;2022-09-09T08:28:47;5.03;;;2.10;;
2618;SDS011;1319;52.346;13.096;2022-09-09T08:31:24;5.13;;;2.07;;
2618;SDS011;1319;52.346;13.096;2022-09-09T08:33:50;2.30;;;2.10;;
2618;SDS011;1319;52.346;13.096;2022-09-09T08:36:17;3.37;;;1.90;;
2618;SDS011;1319;52.346;13.096;2022-09-09T08:38:43;3.97;;;1.83;;
2618;SDS011;1319;52.346;13.096;2022-09-09T08:43:46;10.20;;;2.13;;
2618;SDS011;1319;52.346;13.096;2022-09-09T08:46:17;4.73;;;2.30;;
2618;SDS011;1319;52.346;13.096;2022-09-09T08:51:12;2.93;;;1.80;;
2618;SDS011;1319;52.346;13.096;2022-09-09T08:53:40;2.97;;;2.03;;
2618;SDS011;1319;52.346;13.096;2022-09-09T08:56:12;4.23;;;2.07;;
2618;SDS011;1319;52.346;13.096;2022-09-09T08:58:43;8.43;;;1.90;;
2618;SDS011;1319;52.346;13.096;2022-09-09T09:01:33;3.53;;;1.90;;
2618;SDS011;1319;52.346;13.096;2022-09-09T09:04:07;4.03;;;1.97;;
2618;SDS011;1319;52.346;13.096;2022-09-09T09:06:44;3.87;;;1.80;;
2618;SDS011;1319;52.346;13.096;2022-09-09T09:11:57;3.90;;;1.80;;
2618;SDS011;1319;52.346;13.096;2022-09-09T09:14:25;3.37;;;1.70;;
2618;SDS011;1319;52.346;13.096;2022-09-09T09:16:59;3.53;;;1.70;;
2618;SDS011;1319;52.346;13.096;2022-09-09T09:19:25;3.70;;;2.03;;
2618;SDS011;1319;52.346;13.096;2022-09-09T09:22:02;4.82;;;1.60;;
2618;SDS011;1319;52.346;13.096;2022-09-09T09:24:47;2.95;;;1.77;;
2618;SDS011;1319;52.346;13.096;2022-09-09T09:27:15;7.97;;;1.88;;
2618;SDS011;1319;52.346;13.096;2022-09-09T09:29:41;5.60;;;1.70;;
2618;SDS011;1319;52.346;13.096;2022-09-09T09:32:09;3.47;;;1.60;;
2618;SDS011;1319;52.346;13.096;2022-09-09T09:34:37;1.63;;;1.40;;
2618;SDS011;1319;52.346;13.096;2022-09-09T09:37:07;4.00;;;1.50;;
2618;SDS011;1319;52.346;13.096;2022-09-09T09:39:37;2.65;;;1.85;;
2618;SDS011;1319;52.346;13.096;2022-09-09T09:42:11;1.45;;;1.13;;
2618;SDS011;1319;52.346;13.096;2022-09-09T09:44:39;2.42;;;1.42;;
2618;SDS011;1319;52.346;13.096;2022-09-09T09:47:05;3.92;;;1.40;;
2618;SDS011;1319;52.346;13.096;2022-09-09T09:49:30;3.25;;;1.70;;
2618;SDS011;1319;52.346;13.096;2022-09-09T09:52:00;2.35;;;1.40;;
2618;SDS011;1319;52.346;13.096;2022-09-09T09:54:27;3.22;;;1.50;;
2618;SDS011;1319;52.346;13.096;2022-09-09T09:56:53;2.75;;;1.30;;
2618;SDS011;1319;52.346;13.096;2022-09-09T09:59:23;2.75;;;1.50;;
2618;SDS011;1319;52.346;13.096;2022-09-09T10:02:06;4.07;;;1.52;;
2618;SDS011;1319;52.346;13.096;2022-09-09T10:04:32;2.65;;;1.30;;
2618;SDS011;1319;52.346;13.096;2022-09-09T10:06:58;5.32;;;1.42;;
2618;SDS011;1319;52.346;13.096;2022-09-09T10:09:24;2.40;;;1.45;;
2618;SDS011;1319;52.346;13.096;2022-09-09T10:14:23;6.47;;;1.40;;
2618;SDS011;1319;52.346;13.096;2022-09-09T10:19:21;2.85;;;1.30;;
2618;SDS011;1319;52.346;13.096;2022-09-09T10:21:56;2.38;;;1.33;;
2618;SDS011;1319;52.346;13.096;2022-09-09T10:27:24;2.00;;;1.30;;
2618;SDS011;1319;52.346;13.096;2022-09-09T10:37:22;7.43;;;1.37;;
2618;SDS011;1319;52.346;13.096;2022-09-09T10:39:53;1.80;;;1.20;;
2618;SDS011;1319;52.346;13.096;2022-09-09T10:42:23;2.70;;;1.13;;
2618;SDS011;1319;52.346;13.096;2022-09-09T10:44:56;1.95;;;1.42;;
2618;SDS011;1319;52.346;13.096;2022-09-09T10:47:35;7.70;;;1.42;;
2618;SDS011;1319;52.346;13.096;2022-09-09T10:55:20;4.05;;;1.30;;
2618;SDS011;1319;52.346;13.096;2022-09-09T10:57:50;2.70;;;1.30;;
2618;SDS011;1319;52.346;13.096;2022-09-09T11:02:44;4.25;;;1.30;;
2618;SDS011;1319;52.346;13.096;2022-09-09T11:07:55;2.20;;;1.10;;
2618;SDS011;1319;52.346;13.096;2022-09-09T11:10:28;5.40;;;1.30;;
2618;SDS011;1319;52.346;13.096;2022-09-09T11:12:56;2.85;;;1.38;;
2618;SDS011;1319;52.346;13.096;2022-09-09T11:15:28;3.47;;;1.40;;
2618;SDS011;1319;52.346;13.096;2022-09-09T11:17:56;4.97;;;1.10;;
2618;SDS011;1319;52.346;13.096;2022-09-09T11:20:21;2.03;;;1.20;;
2618;SDS011;1319;52.346;13.096;2022-09-09T11:22:51;4.38;;;1.10;;
2618;SDS011;1319;52.346;13.096;2022-09-09T11:25:29;3.42;;;1.20;;
2618;SDS011;1319;52.346;13.096;2022-09-09T11:30:22;1.07;;;0.97;;
2618;SDS011;1319;52.346;13.096;2022-09-09T11:33:08;6.43;;;1.23;;
2618;SDS011;1319;52.346;13.096;2022-09-09T11:40:36;0.90;;;0.80;;
2618;SDS011;1319;52.346;13.096;2022-09-09T11:43:02;2.90;;;1.08;;
2618;SDS011;1319;52.346;13.096;2022-09-09T11:45:29;4.93;;;1.25;;
2618;SDS011;1319;52.346;13.096;2022-09-09T11:47:59;4.13;;;1.05;;
2618;SDS011;1319;52.346;13.096;2022-09-09T11:52:49;2.97;;;1.10;;
2618;SDS011;1319;52.346;13.096;2022-09-09T11:57:43;1.90;;;0.98;;
2618;SDS011;1319;52.346;13.096;2022-09-09T12:00:27;3.85;;;1.20;;
2618;SDS011;1319;52.346;13.096;2022-09-09T12:02:54;1.73;;;0.90;;
2618;SDS011;1319;52.346;13.096;2022-09-09T12:05:19;5.78;;;1.13;;
2618;SDS011;1319;52.346;13.096;2022-09-09T12:07:55;2.92;;;1.10;;
2618;SDS011;1319;52.346;13.096;2022-09-09T12:10:32;5.07;;;1.25;;
2618;SDS011;1319;52.346;13.096;2022-09-09T12:15:53;3.45;;;1.20;;
2618;SDS011;1319;52.346;13.096;2022-09-09T12:18:25;3.40;;;1.15;;
2618;SDS011;1319;52.346;13.096;2022-09-09T12:23:47;1.67;;;1.10;;
2618;SDS011;1319;52.346;13.096;2022-09-09T12:31:20;3.65;;;1.45;;
2618;SDS011;1319;52.346;13.096;2022-09-09T12:33:47;3.60;;;1.25;;
2618;SDS011;1319;52.346;13.096;2022-09-09T12:36:19;2.38;;;1.00;;
2618;SDS011;1319;52.346;13.096;2022-09-09T12:38:46;5.72;;;1.20;;
2618;SDS011;1319;52.346;13.096;2022-09-09T12:41:18;1.90;;;1.10;;
2618;SDS011;1319;52.346;13.096;2022-09-09T12:43:44;3.65;;;1.40;;
2618;SDS011;1319;52.346;13.096;2022-09-09T12:46:11;2.42;;;1.30;;
2618;SDS011;1319;52.346;13.096;2022-09-09T12:48:39;5.20;;;1.20;;
2618;SDS011;1319;52.346;13.096;2022-09-09T12:51:15;2.13;;;1.10;;
2618;SDS011;1319;52.346;13.096;2022-09-09T12:53:41;3.75;;;1.02;;
2618;SDS011;1319;52.346;13.096;2022-09-09T12:56:08;1.65;;;1.17;;
2618;SDS011;1319;52.346;13.096;2022-09-09T12:58:35;5.28;;;1.50;;
2618;SDS011;1319;52.346;13.096;2022-09-09T13:01:02;3.63;;;1.38;;
2618;SDS011;1319;52.346;13.096;2022-09-09T13:03:30;2.60;;;1.17;;
2618;SDS011;1319;52.346;13.096;2022-09-09T13:05:57;1.98;;;1.15;;
2618;SDS011;1319;52.346;13.096;2022-09-09T13:08:24;2.72;;;1.27;;
2618;SDS011;1319;52.346;13.096;2022-09-09T13:11:01;6.57;;;1.27;;
2618;SDS011;1319;52.346;13.096;2022-09-09T13:13:35;4.82;;;1.25;;
2618;SDS011;1319;52.346;13.096;2022-09-09T13:16:00;2.85;;;0.93;;
2618;SDS011;1319;52.346;13.096;2022-09-09T13:18:27;3.03;;;1.30;;
2618;SDS011;1319;52.346;13.096;2022-09-09T13:20:53;2.25;;;1.10;;
2618;SDS011;1319;52.346;13.096;2022-09-09T13:23:19;1.88;;;1.05;;
2618;SDS011;1319;52.346;13.096;2022-09-09T13:25:58;3.08;;;1.33;;
2618;SDS011;1319;52.346;13.096;2022-09-09T13:28:25;3.58;;;0.98;;
2618;SDS011;1319;52.346;13.096;2022-09-09T13:30:57;3.08;;;1.35;;
2618;SDS011;1319;52.346;13.096;2022-09-09T13:33:28;2.65;;;1.20;;
2618;SDS011;1319;52.346;13.096;2022-09-09T13:35:55;3.63;;;1.40;;
2618;SDS011;1319;52.346;13.096;2022-09-09T13:38:20;1.85;;;1.10;;
2618;SDS011;1319;52.346;13.096;2022-09-09T13:41:02;2.10;;;1.00;;
2618;SDS011;1319;52.346;13.096;2022-09-09T13:43:42;2.40;;;1.13;;
2618;SDS011;1319;52.346;13.096;2022-09-09T13:46:24;1.80;;;1.00;;
2618;SDS011;1319;52.346;13.096;2022-09-09T13:48:54;4.07;;;1.10;;
2618;SDS011;1319;52.346;13.096;2022-09-09T13:54:04;3.05;;;1.30;;
2618;SDS011;1319;52.346;13.096;2022-09-09T13:56:31;4.35;;;1.20;;
2618;SDS011;1319;52.346;13.096;2022-09-09T13:58:56;2.90;;;1.02;;
2618;SDS011;1319;52.346;13.096;2022-09-09T14:01:22;2.45;;;1.00;;
2618;SDS011;1319;52.346;13.096;2022-09-09T14:03:47;1.70;;;1.30;;
2618;SDS011;1319;52.346;13.096;2022-09-09T14:06:13;1.42;;;1.10;;
2618;SDS011;1319;52.346;13.096;2022-09-09T14:08:38;1.58;;;0.90;;
2618;SDS011;1319;52.346;13.096;2022-09-09T14:11:05;4.22;;;1.30;;
2618;SDS011;1319;52.346;13.096;2022-09-09T14:13:30;2.75;;;1.17;;
2618;SDS011;1319;52.346;13.096;2022-09-09T14:15:56;2.22;;;1.10;;
2618;SDS011;1319;52.346;13.096;2022-09-09T14:18:21;2.63;;;1.10;;
2618;SDS011;1319;52.346;13.096;2022-09-09T14:20:48;1.73;;;0.90;;
2618;SDS011;1319;52.346;13.096;2022-09-09T14:23:13;2.33;;;1.00;;
2618;SDS011;1319;52.346;13.096;2022-09-09T14:25:40;4.78;;;1.30;;
2618;SDS011;1319;52.346;13.096;2022-09-09T14:28:05;3.38;;;1.20;;
2618;SDS011;1319;52.346;13.096;2022-09-09T14:30:32;2.58;;;1.10;;
2618;SDS011;1319;52.346;13.096;2022-09-09T14:32:58;1.27;;;1.05;;
2618;SDS011;1319;52.346;13.096;2022-09-09T14:35:23;2.25;;;1.10;;
2618;SDS011;1319;52.346;13.096;2022-09-09T14:37:48;4.03;;;1.45;;
2618;SDS011;1319;52.346;13.096;2022-09-09T14:40:13;2.87;;;1.10;;
2618;SDS011;1319;52.346;13.096;2022-09-09T14:42:40;4.22;;;1.30;;
2618;SDS011;1319;52.346;13.096;2022-09-09T14:45:06;1.80;;;1.00;;
2618;SDS011;1319;52.346;13.096;2022-09-09T14:47:31;2.55;;;1.30;;
2618;SDS011;1319;52.346;13.096;2022-09-09T14:49:57;3.67;;;1.08;;
2618;SDS011;1319;52.346;13.096;2022-09-09T14:52:22;1.92;;;1.00;;
2618;SDS011;1319;52.346;13.096;2022-09-09T14:54:47;4.22;;;1.17;;
2618;SDS011;1319;52.346;13.096;2022-09-09T14:57:12;2.85;;;1.05;;
2618;SDS011;1319;52.346;13.096;2022-09-09T14:59:38;3.55;;;1.10;;
2618;SDS011;1319;52.346;13.096;2022-09-09T15:02:03;2.10;;;1.00;;
2618;SDS011;1319;52.346;13.096;2022-09-09T15:04:29;3.60;;;1.13;;
2618;SDS011;1319;52.346;13.096;2022-09-09T15:06:54;2.08;;;0.90;;
2618;SDS011;1319;52.346;13.096;2022-09-09T15:09:19;2.20;;;1.38;;
2618;SDS011;1319;52.346;13.096;2022-09-09T15:11:44;3.75;;;1.30;;
2618;SDS011;1319;52.346;13.096;2022-09-09T15:14:10;3.47;;;1.20;;
2618;SDS011;1319;52.346;13.096;2022-09-09T15:16:37;2.28;;;1.13;;
2618;SDS011;1319;52.346;13.096;2022-09-09T15:19:02;2.63;;;1.05;;
2618;SDS011;1319;52.346;13.096;2022-09-09T15:21:28;2.45;;;1.00;;
2618;SDS011;1319;52.346;13.096;2022-09-09T15:23:54;3.15;;;1.02;;
2618;SDS011;1319;52.346;13.096;2022-09-09T15:26:19;6.45;;;1.20;;
2618;SDS011;1319;52.346;13.096;2022-09-09T15:28:45;3.85;;;1.40;;
2618;SDS011;1319;52.346;13.096;2022-09-09T15:31:19;3.38;;;1.17;;
2618;SDS011;1319;52.346;13.096;2022-09-09T15:36:20;4.47;;;1.30;;
2618;SDS011;1319;52.346;13.096;2022-09-09T15:38:46;4.15;;;1.10;;
2618;SDS011;1319;52.346;13.096;2022-09-09T15:41:12;2.80;;;1.15;;
2618;SDS011;1319;52.346;13.096;2022-09-09T15:43:38;1.80;;;1.17;;
2618;SDS011;1319;52.346;13.096;2022-09-09T15:46:48;2.20;;;1.05;;
2618;SDS011;1319;52.346;13.096;2022-09-09T15:48:56;3.35;;;1.20;;
2618;SDS011;1319;52.346;13.096;2022-09-09T15:51:22;2.28;;;1.10;;
2618;SDS011;1319;52.346;13.096;2022-09-09T15:53:48;4.25;;;1.70;;
2618;SDS011;1319;52.346;13.096;2022-09-09T15:56:13;3.10;;;1.30;;
2618;SDS011;1319;52.346;13.096;2022-09-09T15:58:39;3.05;;;1.27;;
2618;SDS011;1319;52.346;13.096;2022-09-09T16:01:04;4.82;;;1.17;;
2618;SDS011;1319;52.346;13.096;2022-09-09T16:03:41;2.30;;;1.20;;
2618;SDS011;1319;52.346;13.096;2022-09-09T16:06:20;2.13;;;1.17;;
2618;SDS011;1319;52.346;13.096;2022-09-09T16:08:46;5.25;;;1.15;;
2618;SDS011;1319;52.346;13.096;2022-09-09T16:11:13;3.75;;;1.17;;
2618;SDS011;1319;52.346;13.096;2022-09-09T16:13:39;4.00;;;1.23;;
2618;SDS011;1319;52.346;13.096;2022-09-09T16:16:05;5.68;;;1.42;;
2618;SDS011;1319;52.346;13.096;2022-09-09T16:18:38;4.05;;;1.38;;
2618;SDS011;1319;52.346;13.096;2022-09-09T16:21:04;3.17;;;1.25;;
2618;SDS011;1319;52.346;13.096;2022-09-09T16:23:30;3.15;;;1.13;;
2618;SDS011;1319;52.346;13.096;2022-09-09T16:25:55;1.67;;;1.30;;
2618;SDS011;1319;52.346;13.096;2022-09-09T16:28:21;2.45;;;1.13;;
2618;SDS011;1319;52.346;13.096;2022-09-09T16:30:46;4.65;;;1.40;;
2618;SDS011;1319;52.346;13.096;2022-09-09T16:33:11;1.85;;;1.30;;
2618;SDS011;1319;52.346;13.096;2022-09-09T16:35:39;3.88;;;1.63;;
2618;SDS011;1319;52.346;13.096;2022-09-09T16:38:05;1.75;;;1.17;;
2618;SDS011;1319;52.346;13.096;2022-09-09T16:40:33;3.13;;;1.48;;
2618;SDS011;1319;52.346;13.096;2022-09-09T16:42:59;2.78;;;1.40;;
2618;SDS011;1319;52.346;13.096;2022-09-09T16:45:24;4.70;;;1.42;;
2618;SDS011;1319;52.346;13.096;2022-09-09T16:47:49;1.95;;;1.20;;
2618;SDS011;1319;52.346;13.096;2022-09-09T16:50:14;1.40;;;1.02;;